Time;durP1;ratioP1;P1;durP2;ratioP2;P2;SDS_P1;SDS_P2;PMS_P1;PMS_P2;Temp;Humidity;BMP_temperature;BMP_pressure;BME280_temperature;BME280_humidity;BME280_pressure;Samples;Min_cycle;Max_cycle;Signal;HPM_P1;HPM_P2
2022/02/10 00:08:22;;;;;;;6.28;2.97;;;;;;;2.33;72.03;97022.88;5086952;28;20063;-77
2022/02/10 00:17:01;;;;;;;5.60;2.63;;;;;;;2.25;72.25;97026.03;5086420;28;20480;-80
2022/02/10 00:19:44;;;;;;;5.05;2.88;;;;;;;2.24;72.02;97019.81;5086794;28;20131;-79
2022/02/10 00:22:16;;;;;;;5.95;2.85;;;;;;;2.24;72.16;97014.44;5086931;28;20051;-80
2022/02/10 00:25:21;;;;;;;4.22;2.55;;;;;;;2.23;72.11;97012.81;5086612;28;20431;-77
2022/02/10 00:35:55;;;;;;;7.10;3.00;;;;;;;2.18;72.15;97004.69;5087132;28;20062;-77
2022/02/10 00:38:27;;;;;;;5.88;3.08;;;;;;;2.17;72.18;97002.25;5086235;28;20067;-77
2022/02/10 00:40:53;;;;;;;5.20;2.67;;;;;;;2.12;72.37;97003.00;5087348;28;20506;-77
2022/02/10 00:43:21;;;;;;;4.57;2.63;;;;;;;2.08;72.38;97001.84;5085654;28;20505;-78
2022/02/10 00:45:48;;;;;;;5.72;2.95;;;;;;;2.01;72.53;97010.09;5087247;28;20055;-77
2022/02/10 00:48:15;;;;;;;6.93;3.22;;;;;;;2.05;72.39;97010.44;5085794;28;20063;-77
2022/02/10 00:50:48;;;;;;;6.05;3.22;;;;;;;2.05;71.71;97015.81;5087677;28;20044;-78
2022/02/10 00:53:18;;;;;;;5.45;3.40;;;;;;;2.04;71.47;97015.00;5086926;28;20056;-77
2022/02/10 00:55:46;;;;;;;4.93;2.80;;;;;;;1.98;71.39;97015.16;5086623;28;20125;-77
2022/02/10 00:58:21;;;;;;;5.55;2.80;;;;;;;1.96;71.41;97011.91;5086018;28;20055;-77
2022/02/10 01:30:58;;;;;;;7.85;3.50;;;;;;;1.13;74.26;97019.69;5086550;28;20074;-79
2022/02/10 01:33:27;;;;;;;4.80;2.67;;;;;;;1.12;74.03;97012.72;5085608;28;20047;-79
2022/02/10 01:35:53;;;;;;;7.38;3.33;;;;;;;1.09;73.98;97018.56;5086114;28;20062;-80
2022/02/10 01:38:20;;;;;;;5.95;3.22;;;;;;;1.04;74.39;97015.78;5085575;28;20056;-79
2022/02/10 01:41:17;;;;;;;8.05;3.30;;;;;;;1.01;75.04;97011.72;5085562;28;20078;-79
2022/02/10 01:57:48;;;;;;;6.57;3.15;;;;;;;1.00;76.20;96998.56;5085769;28;20084;-80
2022/02/10 02:05:50;;;;;;;5.13;2.63;;;;;;;1.04;75.23;96983.59;5086027;28;20059;-80
2022/02/10 02:08:22;;;;;;;3.42;2.25;;;;;;;1.01;75.06;96973.38;5085089;28;20054;-79
2022/02/10 02:10:48;;;;;;;5.05;2.60;;;;;;;1.01;74.96;96968.00;5086116;28;20052;-79
2022/02/10 02:13:15;;;;;;;5.68;2.38;;;;;;;1.03;74.83;96963.19;5088249;28;20052;-78
2022/02/10 02:15:41;;;;;;;4.00;2.40;;;;;;;1.09;74.28;96964.91;5089466;28;20048;-79
2022/02/10 02:18:08;;;;;;;7.07;2.45;;;;;;;1.10;74.12;96963.88;5089115;28;20074;-79
2022/02/10 02:20:34;;;;;;;6.82;2.30;;;;;;;1.14;73.37;96956.94;5089064;28;20075;-79
2022/02/10 02:23:02;;;;;;;5.55;1.90;;;;;;;1.18;73.09;96955.41;5089783;28;20044;-79
2022/02/10 02:25:28;;;;;;;4.72;2.08;;;;;;;1.21;72.99;96957.63;5088314;28;20051;-79
2022/02/10 02:27:57;;;;;;;5.32;1.80;;;;;;;1.24;72.89;96946.38;5089901;28;20067;-79
2022/02/10 02:30:31;;;;;;;5.57;1.95;;;;;;;1.27;72.57;96948.59;5088398;28;20434;-79
2022/02/10 02:36:15;;;;;;;4.47;1.90;;;;;;;1.30;71.83;96942.75;5012377;28;20420;-80
2022/02/10 02:39:00;;;;;;;3.65;1.80;;;;;;;1.30;71.80;96936.53;5088720;28;20055;-79
2022/02/10 03:06:20;;;;;;;4.90;2.00;;;;;;;1.33;71.40;96932.56;5067613;28;20439;-79
2022/02/10 03:08:50;;;;;;;3.40;1.70;;;;;;;1.32;71.39;96930.97;5068345;28;20052;-80
2022/02/10 03:11:19;;;;;;;4.05;1.77;;;;;;;1.29;71.32;96925.00;5068274;28;20466;-76
2022/02/10 03:13:50;;;;;;;3.80;2.00;;;;;;;1.29;71.17;96916.94;5087000;28;20055;-77
2022/02/10 03:16:43;;;;;;;4.28;1.90;;;;;;;1.27;71.13;96924.44;5088450;28;20417;-77
2022/02/10 03:19:26;;;;;;;4.95;2.00;;;;;;;1.25;71.03;96925.72;5087577;28;20052;-79
2022/02/10 04:03:11;;;;;;;5.37;2.07;;;;;;;1.27;69.81;96907.53;5077733;28;20131;-78
2022/02/10 04:08:39;;;;;;;4.80;2.15;;;;;;;1.19;70.31;96900.69;5082486;28;20140;-78
2022/02/10 04:13:59;;;;;;;3.40;1.83;;;;;;;1.19;70.24;96906.06;5087789;28;20090;-77
2022/02/10 04:16:31;;;;;;;3.75;1.60;;;;;;;1.21;69.81;96903.16;5085954;28;20044;-78
2022/02/10 04:19:35;;;;;;;4.43;1.92;;;;;;;1.20;69.59;96906.88;5087586;28;20117;-78
2022/02/10 04:22:01;;;;;;;3.97;1.60;;;;;;;1.17;69.78;96900.13;5087496;28;20055;-78
2022/02/10 04:27:14;;;;;;;3.63;1.85;;;;;;;1.23;69.49;96901.84;5086652;28;20067;-76
2022/02/10 04:38:35;;;;;;;5.60;2.05;;;;;;;1.05;69.32;96899.41;5086816;28;20063;-77
2022/02/10 04:55:39;;;;;;;4.63;1.98;;;;;;;0.84;70.52;96895.59;5086909;28;20078;-77
2022/02/10 04:58:32;;;;;;;3.90;2.17;;;;;;;0.84;70.76;96890.22;5085515;28;20059;-77
2022/02/10 05:01:16;;;;;;;3.17;1.80;;;;;;;0.80;70.94;96886.41;5085760;28;20136;-77
2022/02/10 05:04:21;;;;;;;4.25;2.00;;;;;;;0.86;71.19;96884.63;5086562;28;20419;-77
2022/02/10 05:18:04;;;;;;;2.78;1.60;;;;;;;0.89;70.04;96876.06;5086104;28;20097;-77
2022/02/10 05:21:00;;;;;;;;;;;;;;;0.91;69.96;96869.44;5086707;28;20048;-77
2022/02/10 05:23:41;;;;;;;3.13;1.73;;;;;;;0.85;69.75;96866.91;5085130;28;19936;-77
2022/02/10 05:32:02;;;;;;;2.80;1.40;;;;;;;0.88;69.10;96871.78;5085741;28;20070;-77
2022/02/10 05:34:34;;;;;;;3.45;1.58;;;;;;;0.91;68.64;96871.28;5086692;28;20647;-76
2022/02/10 05:37:02;;;;;;;3.85;1.60;;;;;;;0.94;68.69;96873.47;5085648;28;20056;-77
2022/02/10 05:39:32;;;;;;;3.15;1.65;;;;;;;0.91;68.44;96864.06;5086108;28;20063;-77
2022/02/10 05:42:34;;;;;;;3.60;1.60;;;;;;;0.93;67.91;96875.34;5085233;28;20093;-79
2022/02/10 05:45:08;;;;;;;3.13;1.45;;;;;;;0.88;68.37;96869.91;5085739;28;20051;-77
2022/02/10 05:47:53;;;;;;;3.05;1.35;;;;;;;0.86;68.92;96874.69;5088234;28;20124;-77
2022/02/10 05:50:50;;;;;;;7.95;2.10;;;;;;;0.85;69.28;96874.97;5089153;28;20151;-77
2022/02/10 05:56:14;;;;;;;5.07;1.77;;;;;;;0.81;69.41;96876.50;5089519;28;20091;-77
2022/02/10 05:59:08;;;;;;;5.38;2.63;;;;;;;0.78;69.43;96873.25;5088954;28;20052;-76
2022/02/10 06:51:25;;;;;;;8.77;2.25;;;;;;;0.37;71.93;96895.84;5082452;28;20104;-76
2022/02/10 06:54:04;;;;;;;9.57;2.22;;;;;;;0.35;72.30;96895.25;5089224;28;20052;-79
2022/02/10 06:57:00;;;;;;;9.93;2.17;;;;;;;0.39;72.46;96900.94;5087891;28;20036;-78
2022/02/10 07:02:54;;;;;;;8.05;3.17;;;;;;;0.51;72.37;96904.38;5088254;28;20109;-77
2022/02/10 07:08:21;;;;;;;18.98;5.45;;;;;;;0.74;72.04;96904.28;5087935;28;20546;-78
2022/02/10 07:11:08;;;;;;;25.27;7.53;;;;;;;0.86;71.89;96900.72;5088208;28;20052;-76
2022/02/10 07:55:12;;;;;;;2.13;1.08;;;;;;;3.36;58.24;96899.94;5087101;28;20048;-79
2022/02/10 07:57:42;;;;;;;2.67;1.00;;;;;;;3.53;56.92;96898.97;5086833;28;20051;-77
2022/02/10 08:50:33;;;;;;;4.72;1.77;;;;;;;7.32;48.10;96854.00;5043401;28;20136;-77
2022/02/10 08:55:58;;;;;;;12.60;2.85;;;;;;;7.24;47.97;96860.03;5086034;28;20112;-77
2022/02/10 08:58:59;;;;;;;8.55;2.28;;;;;;;7.20;48.12;96852.75;5086282;28;20479;-77
2022/02/10 09:04:22;;;;;;;65.55;4.97;;;;;;;7.26;49.40;96840.78;5061830;28;20522;-78
2022/02/10 09:07:04;;;;;;;30.38;4.22;;;;;;;7.21;49.09;96846.25;5065960;28;20113;-78
2022/02/10 09:09:58;;;;;;;54.43;4.00;;;;;;;7.35;49.42;96844.47;5065311;28;20048;-78
2022/02/10 09:12:50;;;;;;;10.50;3.38;;;;;;;7.32;50.11;96836.94;5083201;28;20440;-76
2022/02/10 09:56:54;;;;;;;97.00;12.23;;;;;;;11.06;42.89;96836.81;5085968;28;20055;-74
2022/02/10 09:59:33;;;;;;;8.05;2.70;;;;;;;11.37;42.47;96841.50;5085077;28;20054;-75
2022/02/10 10:02:07;;;;;;;42.13;5.47;;;;;;;11.47;42.58;96842.06;5085859;28;20047;-75
2022/02/10 10:04:40;;;;;;;28.38;3.90;;;;;;;11.62;42.22;96846.31;5085625;28;20052;-74
2022/02/10 10:07:20;;;;;;;11.60;3.22;;;;;;;11.89;43.04;96845.34;5083248;28;20052;-77
2022/02/10 10:09:58;;;;;;;6.53;3.05;;;;;;;12.06;41.95;96832.91;5085743;28;20052;-76
2022/02/10 10:18:27;;;;;;;8.48;2.65;;;;;;;12.14;43.40;96840.34;5083497;28;20044;-78
2022/02/10 10:24:07;;;;;;;10.82;3.35;;;;;;;12.10;43.25;96834.69;5085645;28;20054;-77
2022/02/10 10:26:56;;;;;;;11.60;3.80;;;;;;;12.05;43.19;96826.63;5084295;28;20044;-77
2022/02/10 10:49:43;;;;;;;17.00;3.03;;;;;;;12.63;42.92;96803.63;5056375;28;20063;-76
2022/02/10 10:52:22;;;;;;;7.25;2.40;;;;;;;12.76;43.22;96791.75;5087665;28;20056;-76
2022/02/10 10:54:58;;;;;;;5.28;1.90;;;;;;;13.06;42.14;96800.94;5089125;28;20056;-75
2022/02/10 10:57:29;;;;;;;8.18;2.42;;;;;;;13.14;41.46;96782.91;5087704;28;20588;-76
2022/02/10 11:36:55;;;;;;;5.80;2.40;;;;;;;12.94;44.03;96739.81;5088185;28;20565;-76
2022/02/10 11:39:39;;;;;;;5.53;2.45;;;;;;;12.97;43.01;96736.44;5087469;28;20047;-75
2022/02/10 11:42:26;;;;;;;5.45;2.53;;;;;;;13.08;43.57;96721.31;5086682;28;20484;-74
2022/02/10 12:36:35;;;;;;;7.03;2.83;;;;;;;12.59;43.15;96677.03;5042726;28;20098;-78
2022/02/10 12:39:34;;;;;;;5.68;2.38;;;;;;;12.54;43.64;96682.66;5083470;28;20138;-77
2022/02/10 14:15:03;;;;;;;7.63;2.50;;;;;;;12.25;46.71;96632.19;5084862;28;20063;-75
2022/02/10 14:17:35;;;;;;;6.73;2.80;;;;;;;12.22;47.20;96634.78;5088853;28;20032;-75
2022/02/10 14:20:13;;;;;;;8.27;2.47;;;;;;;12.23;47.11;96634.47;5089330;28;20052;-74
2022/02/10 14:22:52;;;;;;;5.30;2.67;;;;;;;12.24;47.71;96638.00;5089320;28;20526;-75
2022/02/10 14:28:02;;;;;;;6.65;2.40;;;;;;;12.20;47.02;96643.28;5089103;28;20121;-77
2022/02/10 14:30:29;;;;;;;6.80;2.92;;;;;;;12.10;46.82;96643.59;5088422;28;20094;-78
2022/02/10 14:32:59;;;;;;;6.63;2.60;;;;;;;12.05;46.92;96646.50;5090680;28;20122;-76
2022/02/10 14:35:31;;;;;;;7.45;2.58;;;;;;;12.02;47.48;96644.41;5088449;28;20761;-76
2022/02/10 14:38:16;;;;;;;10.32;2.67;;;;;;;11.98;46.77;96646.19;5088371;28;20413;-77
2022/02/10 14:41:13;;;;;;;6.00;2.60;;;;;;;11.85;47.59;96647.09;5088889;28;20070;-77
2022/02/10 15:11:54;;;;;;;9.13;3.00;;;;;;;11.74;49.77;96631.03;5087395;28;20069;-75
2022/02/10 15:53:25;;;;;;;7.00;3.88;;;;;;;10.64;53.45;96625.63;5115505;27;20387;-75
2022/02/10 16:13:34;;;;;;;5.63;3.00;;;;;;;10.26;54.31;96630.66;5122948;27;20055;-75
2022/02/10 16:16:40;;;;;;;7.03;3.00;;;;;;;10.19;54.39;96631.06;5110046;27;20048;-74
2022/02/10 16:18:52;;;;;;;8.40;3.70;;;;;;;10.12;55.12;96625.22;5118459;27;20043;-79
2022/02/10 16:21:29;;;;;;;6.78;3.20;;;;;;;10.08;55.09;96627.78;5122954;27;20048;-79
2022/02/10 16:24:01;;;;;;;6.57;3.17;;;;;;;10.01;55.14;96623.88;5123192;27;20552;-80
2022/02/10 16:26:39;;;;;;;9.57;4.07;;;;;;;10.00;55.16;96623.06;5122967;27;20043;-80
2022/02/10 16:29:09;;;;;;;7.55;3.88;;;;;;;9.95;55.28;96623.19;5123538;27;20050;-79
2022/02/10 16:31:35;;;;;;;8.25;3.30;;;;;;;9.87;55.16;96623.91;5123442;27;20047;-80
2022/02/10 16:34:02;;;;;;;7.45;3.38;;;;;;;9.85;55.43;96623.41;5123491;27;20051;-79
2022/02/10 16:36:30;;;;;;;6.18;3.35;;;;;;;9.85;55.53;96626.13;5123631;27;20683;-78
2022/02/10 16:38:57;;;;;;;8.27;3.58;;;;;;;9.83;55.87;96628.38;5123353;27;20789;-80
2022/02/10 16:41:23;;;;;;;5.65;3.08;;;;;;;9.81;55.66;96630.56;5111123;27;20131;-79
2022/02/10 16:43:51;;;;;;;9.38;3.40;;;;;;;9.81;55.53;96625.94;5102855;27;20439;-79
2022/02/10 16:46:18;;;;;;;6.93;3.58;;;;;;;9.81;55.68;96620.47;5102610;28;20055;-79
2022/02/10 16:48:44;;;;;;;12.00;3.80;;;;;;;9.81;55.72;96627.84;5102635;27;20046;-79
2022/02/10 16:51:11;;;;;;;7.65;3.58;;;;;;;9.77;55.67;96619.50;5102148;27;20056;-79
2022/02/10 16:53:42;;;;;;;11.60;3.78;;;;;;;9.77;55.59;96616.78;5102692;27;20059;-79
2022/02/10 16:56:13;;;;;;;10.18;4.50;;;;;;;9.77;55.46;96621.44;5102135;27;20089;-78
2022/02/10 16:58:46;;;;;;;10.68;3.83;;;;;;;9.75;55.80;96616.28;5103277;27;20070;-79
2022/02/10 17:01:39;;;;;;;11.40;5.32;;;;;;;9.76;55.25;96623.34;5102111;27;20048;-79
2022/02/10 17:04:32;;;;;;;;;;;;;;;9.77;55.36;96621.44;5091904;27;20503;-80
2022/02/10 17:20:46;;;;;;;9.77;4.30;;;;;;;9.82;54.80;96626.75;5078224;28;20515;-79
2022/02/10 17:26:12;;;;;;;8.00;4.10;;;;;;;9.87;55.08;96640.25;5068895;28;20615;-80
2022/02/10 17:28:40;;;;;;;9.65;4.60;;;;;;;9.81;55.45;96647.69;5068156;28;20102;-78
2022/02/10 17:31:27;;;;;;;9.27;4.75;;;;;;;9.78;56.64;96652.94;5068255;28;20044;-80
2022/02/10 17:34:20;;;;;;;11.43;4.53;;;;;;;9.73;56.89;96655.78;5068029;28;20129;-79
2022/02/10 17:37:02;;;;;;;11.43;4.82;;;;;;;9.61;57.46;96648.94;5067893;28;20764;-79
2022/02/10 17:42:34;;;;;;;12.25;4.63;;;;;;;9.32;59.11;96651.97;5089703;28;20079;-79
2022/02/10 17:45:20;;;;;;;12.30;5.30;;;;;;;9.18;59.19;96653.09;5088303;28;20071;-78
2022/02/10 17:53:24;;;;;;;10.48;5.65;;;;;;;8.65;61.07;96675.22;5088469;28;20058;-79
2022/02/10 17:55:51;;;;;;;9.90;5.97;;;;;;;8.52;61.73;96683.03;5088581;28;20056;-79
2022/02/10 17:58:22;;;;;;;12.95;5.25;;;;;;;8.41;62.38;96681.59;5087328;28;20048;-79
2022/02/10 18:00:49;;;;;;;12.13;5.85;;;;;;;8.32;62.62;96697.72;5088581;28;20109;-79
2022/02/10 18:03:15;;;;;;;13.55;6.50;;;;;;;8.25;62.94;96699.19;5087237;28;20063;-79
2022/02/10 18:06:11;;;;;;;11.93;5.82;;;;;;;8.23;63.34;96701.38;5088891;28;20407;-79
2022/02/10 18:08:44;;;;;;;13.23;6.55;;;;;;;8.20;63.56;96707.41;5087273;28;20043;-81
2022/02/10 18:13:57;;;;;;;11.15;6.32;;;;;;;8.14;63.99;96703.13;5087381;28;20189;-78
2022/02/10 18:16:28;;;;;;;16.08;6.20;;;;;;;8.10;64.36;96711.88;5069717;28;20054;-76
2022/02/10 18:19:00;;;;;;;12.73;6.28;;;;;;;8.06;64.40;96712.75;5088018;28;20752;-76
2022/02/10 18:21:40;;;;;;;14.38;6.22;;;;;;;8.01;65.04;96716.34;5086941;28;20050;-76
2022/02/10 18:24:30;;;;;;;11.10;5.82;;;;;;;7.96;64.68;96713.69;5087443;28;20481;-76
2022/02/10 18:27:04;;;;;;;12.55;6.35;;;;;;;7.85;65.40;96713.03;5087264;28;20527;-78
2022/02/10 18:29:48;;;;;;;17.05;6.53;;;;;;;7.73;65.72;96725.41;5085959;28;20044;-77
2022/02/10 19:01:30;;;;;;;12.15;6.47;;;;;;;7.50;67.90;96735.94;5108788;28;20703;-79
2022/02/10 19:05:44;;;;;;;12.32;6.55;;;;;;;7.56;67.17;96748.34;5106170;28;20096;-78
2022/02/10 19:08:19;;;;;;;12.77;6.45;;;;;;;7.58;67.38;96743.44;5107617;28;20130;-76
2022/02/10 19:10:49;;;;;;;13.13;6.65;;;;;;;7.62;67.43;96745.56;5097527;28;20119;-79
2022/02/10 19:13:17;;;;;;;13.73;6.05;;;;;;;7.65;67.22;96734.16;5076018;28;20055;-78
2022/02/10 19:15:45;;;;;;;11.77;6.10;;;;;;;7.67;67.28;96751.72;5066482;28;20121;-75
2022/02/10 19:18:12;;;;;;;13.00;7.03;;;;;;;7.67;67.50;96749.03;5065583;28;20060;-77
2022/02/10 19:20:39;;;;;;;10.55;6.45;;;;;;;7.70;67.15;96750.38;5066524;28;20049;-76
2022/02/10 19:23:07;;;;;;;16.20;6.38;;;;;;;7.67;67.32;96748.22;5065790;28;20823;-77
2022/02/10 19:25:36;;;;;;;13.45;6.70;;;;;;;7.69;67.36;96751.47;5065523;28;20415;-78
2022/02/10 19:28:05;;;;;;;11.98;6.35;;;;;;;7.70;67.25;96742.22;5065502;28;20568;-77
2022/02/10 19:30:35;;;;;;;17.30;8.15;;;;;;;7.74;67.01;96748.69;5047251;28;20419;-78
2022/02/10 19:33:03;;;;;;;18.63;7.43;;;;;;;7.74;67.00;96754.13;5057816;28;20065;-78
2022/02/10 19:35:33;;;;;;;18.00;7.75;;;;;;;7.74;66.77;96754.13;5045885;28;20045;-78
2022/02/10 19:38:04;;;;;;;14.80;7.22;;;;;;;7.73;66.74;96753.31;5045413;28;20053;-78
2022/02/10 19:40:33;;;;;;;12.50;6.53;;;;;;;7.69;66.70;96763.13;5051277;28;20047;-79
2022/02/10 19:43:00;;;;;;;13.07;7.38;;;;;;;7.63;66.95;96768.88;5087643;28;20052;-78
2022/02/10 19:45:28;;;;;;;17.45;7.57;;;;;;;7.51;67.53;96761.94;5086623;28;20040;-78
2022/02/10 19:47:54;;;;;;;15.77;7.20;;;;;;;7.46;67.72;96770.13;5087806;28;20060;-78
2022/02/10 19:50:26;;;;;;;14.77;7.72;;;;;;;7.38;68.07;96772.69;5086404;28;20048;-78
2022/02/10 19:52:56;;;;;;;13.60;7.22;;;;;;;7.34;68.90;96772.44;5087859;28;20101;-78
2022/02/10 19:55:24;;;;;;;14.88;7.60;;;;;;;7.37;68.52;96774.59;5085989;28;20044;-77
2022/02/10 19:57:54;;;;;;;14.38;6.97;;;;;;;7.37;68.54;96763.75;5087291;28;20048;-77
2022/02/10 20:00:25;;;;;;;21.10;7.63;;;;;;;7.36;68.82;96774.84;5087009;28;20052;-78
2022/02/10 20:02:54;;;;;;;16.80;8.02;;;;;;;7.34;69.29;96777.84;5087062;28;20689;-78
2022/02/10 20:05:25;;;;;;;14.10;7.68;;;;;;;7.40;69.17;96776.69;5086987;28;20101;-78
2022/02/10 20:07:52;;;;;;;14.68;7.47;;;;;;;7.41;68.87;96782.94;5086746;28;20077;-77
2022/02/10 20:10:19;;;;;;;12.45;7.70;;;;;;;7.38;69.04;96778.91;5084002;28;20578;-78
2022/02/10 20:12:46;;;;;;;13.45;8.00;;;;;;;7.37;69.12;96788.13;5086702;28;20040;-78
2022/02/10 20:15:13;;;;;;;13.93;7.35;;;;;;;7.40;69.17;96792.97;5086843;28;20418;-78
2022/02/10 20:17:41;;;;;;;11.38;7.50;;;;;;;7.44;68.89;96799.44;5086919;28;20077;-78
2022/02/10 20:20:11;;;;;;;12.77;8.07;;;;;;;7.45;68.58;96800.22;5086823;28;20453;-77
2022/02/10 20:22:38;;;;;;;14.80;7.90;;;;;;;7.46;68.95;96808.06;5087186;28;20044;-78
2022/02/10 20:25:06;;;;;;;13.63;8.20;;;;;;;7.47;68.59;96793.44;5086713;28;20079;-77
2022/02/10 20:27:33;;;;;;;15.80;8.02;;;;;;;7.50;68.83;96792.84;5087232;28;20097;-77
2022/02/10 20:29:59;;;;;;;15.90;8.15;;;;;;;7.57;68.32;96803.38;5086322;28;20055;-77
2022/02/10 20:32:26;;;;;;;15.50;7.97;;;;;;;7.58;68.54;96797.66;5086892;28;20048;-78
2022/02/10 20:34:54;;;;;;;15.68;8.20;;;;;;;7.56;68.31;96791.69;5086938;28;20044;-78
2022/02/10 20:37:23;;;;;;;16.98;8.93;;;;;;;7.55;68.01;96795.50;5086682;28;20048;-78
2022/02/10 20:39:49;;;;;;;13.57;7.47;;;;;;;7.49;68.32;96795.84;5090446;28;20046;-77
2022/02/10 20:42:18;;;;;;;14.38;8.32;;;;;;;7.48;68.86;96794.25;5070614;28;20049;-78
2022/02/10 20:44:48;;;;;;;16.73;7.78;;;;;;;7.42;68.92;96788.06;5070549;28;20075;-77
2022/02/10 20:47:18;;;;;;;13.93;7.90;;;;;;;7.45;68.78;96798.31;5069664;28;20058;-78
2022/02/10 20:49:45;;;;;;;16.33;8.15;;;;;;;7.43;69.02;96791.59;5070693;28;20131;-77
2022/02/10 20:52:12;;;;;;;11.93;7.05;;;;;;;7.41;69.09;96791.84;5069171;28;20503;-77
2022/02/10 20:54:40;;;;;;;16.38;8.00;;;;;;;7.41;68.81;96794.56;5070903;28;20094;-77
2022/02/10 20:57:08;;;;;;;14.38;8.55;;;;;;;7.39;68.66;96791.34;5068994;28;20256;-78
2022/02/10 20:59:37;;;;;;;13.63;7.40;;;;;;;7.35;68.91;96786.78;5070416;28;20048;-78
2022/02/10 21:02:08;;;;;;;12.80;7.82;;;;;;;7.33;69.07;96797.91;5069621;28;20407;-78
2022/02/10 21:04:40;;;;;;;19.30;8.95;;;;;;;7.34;69.22;96788.69;5070271;28;20478;-78
2022/02/10 21:07:12;;;;;;;15.88;7.65;;;;;;;7.26;68.91;96797.44;5069377;28;20053;-78
2022/02/10 21:09:44;;;;;;;12.18;7.60;;;;;;;7.24;69.22;96795.00;5069941;28;20105;-79
2022/02/10 21:12:12;;;;;;;13.98;7.85;;;;;;;7.22;69.61;96785.56;5085103;28;20056;-77
2022/02/10 21:14:41;;;;;;;13.73;7.78;;;;;;;7.18;69.92;96787.22;5089753;28;20071;-78
2022/02/10 21:17:09;;;;;;;20.75;9.02;;;;;;;7.18;69.67;96790.75;5090084;28;20052;-76
2022/02/10 21:19:37;;;;;;;17.88;8.80;;;;;;;7.23;69.74;96784.47;5089686;28;20048;-78
2022/02/10 21:22:08;;;;;;;14.98;8.43;;;;;;;7.22;69.71;96782.84;5089673;28;20055;-78
2022/02/10 21:24:39;;;;;;;15.07;8.32;;;;;;;7.22;69.58;96796.41;5090192;28;20048;-77
2022/02/10 21:27:30;;;;;;;13.23;8.18;;;;;;;7.19;69.48;96772.59;5089802;28;20051;-79
2022/02/10 21:30:00;;;;;;;15.45;8.55;;;;;;;7.17;69.78;96769.38;5090427;28;20101;-78
2022/02/10 21:32:28;;;;;;;18.55;8.70;;;;;;;7.19;69.61;96778.00;5088943;28;20109;-78
2022/02/10 21:37:48;;;;;;;14.88;8.30;;;;;;;7.28;69.66;96774.38;5082792;28;20212;-78
2022/02/10 21:40:28;;;;;;;14.07;8.52;;;;;;;7.29;69.62;96773.28;5088915;28;20051;-77
2022/02/10 21:54:40;;;;;;;16.02;9.27;;;;;;;7.35;69.47;96763.22;5047467;28;20079;-78
2022/02/10 21:57:22;;;;;;;14.20;9.15;;;;;;;7.37;69.74;96761.03;5048650;28;20103;-79
2022/02/10 22:00:15;;;;;;;16.30;9.57;;;;;;;7.38;69.32;96754.50;5047776;28;20060;-77
2022/02/10 22:09:02;;;;;;;15.85;8.93;;;;;;;7.39;69.44;96753.41;5076235;27;20433;-80
2022/02/10 22:11:35;;;;;;;16.40;9.30;;;;;;;7.39;69.44;96753.41;5043572;28;20571;-80
2022/02/10 22:19:37;;;;;;;15.68;8.63;;;;;;;7.33;69.62;96746.44;5042922;28;20060;-80
2022/02/10 22:22:09;;;;;;;15.65;9.35;;;;;;;7.33;69.58;96743.72;5042868;28;20041;-78
2022/02/10 22:24:37;;;;;;;18.50;9.40;;;;;;;7.33;69.87;96735.59;5043070;28;20152;-79
2022/02/10 22:27:05;;;;;;;17.67;9.05;;;;;;;7.33;69.87;96733.69;5042970;28;20739;-79
2022/02/10 22:29:35;;;;;;;13.98;8.48;;;;;;;7.33;69.81;96733.69;5042890;28;20148;-78
2022/02/10 22:32:13;;;;;;;16.75;9.40;;;;;;;7.33;69.46;96736.41;5042575;28;20052;-78
2022/02/10 22:34:41;;;;;;;18.80;9.40;;;;;;;7.35;69.48;96730.69;5042392;28;20559;-79
2022/02/10 22:37:11;;;;;;;19.15;9.35;;;;;;;7.32;69.71;96731.28;5043031;28;20055;-78
2022/02/10 22:39:43;;;;;;;17.70;8.90;;;;;;;7.33;69.52;96733.69;5041955;28;20321;-82
2022/02/10 22:42:10;;;;;;;17.93;8.97;;;;;;;7.31;69.28;96730.47;5043104;28;20083;-80
2022/02/10 22:44:38;;;;;;;15.95;9.30;;;;;;;7.28;69.86;96724.81;5043010;28;20046;-79
2022/02/10 22:47:05;;;;;;;15.20;8.82;;;;;;;7.30;69.84;96722.63;5042305;28;20045;-78
2022/02/10 22:49:32;;;;;;;14.23;9.23;;;;;;;7.31;69.87;96730.47;5043162;28;20053;-78
2022/02/10 22:51:58;;;;;;;15.43;9.43;;;;;;;7.30;69.85;96719.91;5042370;28;20717;-79
2022/02/10 22:54:25;;;;;;;16.52;9.90;;;;;;;7.27;69.78;96718.59;5043089;28;20509;-77
2022/02/10 22:56:53;;;;;;;18.05;9.52;;;;;;;7.26;69.69;96710.78;5042308;28;20099;-77
2022/02/10 22:59:20;;;;;;;15.90;9.60;;;;;;;7.28;69.64;96719.41;5042971;28;20525;-76
2022/02/10 23:01:47;;;;;;;14.95;9.20;;;;;;;7.24;69.82;96702.09;5041580;28;20052;-78
2022/02/10 23:04:13;;;;;;;19.30;9.70;;;;;;;7.24;69.59;96702.09;5042246;28;20045;-79
2022/02/10 23:06:40;;;;;;;18.65;9.88;;;;;;;7.23;69.92;96703.22;5042377;28;20057;-79
2022/02/10 23:09:27;;;;;;;14.63;9.25;;;;;;;7.19;70.01;96702.16;5042523;28;20049;-78
2022/02/10 23:11:56;;;;;;;16.83;10.13;;;;;;;7.18;69.51;96698.66;5042870;28;20107;-79
2022/02/10 23:14:23;;;;;;;14.30;9.35;;;;;;;7.16;69.97;96691.94;5041374;28;20041;-81
2022/02/10 23:16:50;;;;;;;17.88;9.60;;;;;;;7.15;70.06;96698.41;5042921;28;20068;-78
2022/02/10 23:19:17;;;;;;;14.70;9.40;;;;;;;7.12;70.36;96693.59;5032323;28;20143;-78
2022/02/10 23:21:43;;;;;;;17.92;9.07;;;;;;;7.15;70.25;96693.00;5029634;28;20057;-78
2022/02/10 23:24:10;;;;;;;16.83;9.45;;;;;;;7.14;70.22;96685.97;5028352;28;20049;-79
2022/02/10 23:26:37;;;;;;;17.65;9.20;;;;;;;7.16;70.03;96689.22;5029316;28;20058;-79
2022/02/10 23:29:05;;;;;;;20.92;9.30;;;;;;;7.15;69.97;96683.00;5028466;28;20518;-79
2022/02/10 23:31:32;;;;;;;15.85;9.25;;;;;;;7.14;70.12;96678.66;5028765;28;20061;-79
2022/02/10 23:34:02;;;;;;;16.40;9.77;;;;;;;7.14;70.29;96675.13;5029117;28;20053;-79
2022/02/10 23:39:16;;;;;;;17.23;9.80;;;;;;;7.10;70.17;96668.69;5028838;28;20152;-79
2022/02/10 23:42:02;;;;;;;18.45;10.25;;;;;;;7.10;70.07;96655.13;5028426;28;20081;-79
2022/02/10 23:44:33;;;;;;;18.38;9.27;;;;;;;7.06;70.27;96653.03;5030345;28;20142;-79
2022/02/10 23:47:01;;;;;;;16.38;10.10;;;;;;;7.03;70.54;96648.16;5068544;28;20506;-78
2022/02/10 23:49:30;;;;;;;13.50;9.35;;;;;;;7.00;70.56;96654.19;5068102;28;20068;-78
2022/02/10 23:51:59;;;;;;;19.30;10.13;;;;;;;6.96;70.86;96642.31;5068802;28;20054;-78
2022/02/10 23:54:28;;;;;;;13.10;9.32;;;;;;;6.96;71.12;96639.59;5067392;28;20064;-79
2022/02/10 23:57:00;;;;;;;17.40;9.48;;;;;;;6.89;71.66;96638.31;5068987;28;20411;-80
